WAT4275 CYEY-CYNM
Flight info
| Callsign | WAT4275 |
|---|---|
| Flight time | 0h 23m |
| Altitude | 5000 |
| Route | SELBO NM |
| Aircraft | B350/L-SBGRW/S |
Departure
| Time | 2026-04-18 15:21 |
|---|---|
| Airport | Amos/Magny Airport (CYEY) |
Arrival
| Time | 2026-04-18 15:44 |
|---|---|
| Airport | Matagami Airport (CYNM) |
| Time | Latitude | Longitude | Altitude | Speed | Heading |
|---|---|---|---|---|---|
| 2026-04-18 15:18 | 48.56147 | -78.24265 | 1059 ft | 0 kts | 308° |
| 2026-04-18 15:20 | 48.56401 | -78.24747 | 1071 ft | 109 kts | 310° |
| 2026-04-18 15:21 | 48.56962 | -78.25592 | 1817 ft | 107 kts | 335° |
| 2026-04-18 15:21 | 48.57787 | -78.25827 | 2410 ft | 134 kts | 3° |
| 2026-04-18 15:21 | 48.58746 | -78.25386 | 2971 ft | 155 kts | 31° |
| 2026-04-18 15:21 | 48.59533 | -78.24186 | 3527 ft | 169 kts | 60° |
| 2026-04-18 15:22 | 48.59900 | -78.22468 | 4117 ft | 177 kts | 86° |
| 2026-04-18 15:22 | 48.59731 | -78.20595 | 4619 ft | 188 kts | 107° |
| 2026-04-18 15:22 | 48.59747 | -78.18556 | 4835 ft | 209 kts | 66° |
| 2026-04-18 15:22 | 48.60782 | -78.16972 | 4923 ft | 224 kts | 24° |
| 2026-04-18 15:23 | 48.62344 | -78.16718 | 4967 ft | 233 kts | 355° |
| 2026-04-18 15:23 | 48.63972 | -78.17053 | 4992 ft | 239 kts | 351° |
| 2026-04-18 15:23 | 48.65614 | -78.17624 | 5004 ft | 244 kts | 346° |
| 2026-04-18 15:23 | 48.67263 | -78.18144 | 5007 ft | 247 kts | 354° |
| 2026-04-18 15:24 | 48.68988 | -78.18238 | 5020 ft | 249 kts | 1° |
| 2026-04-18 15:24 | 48.70725 | -78.18066 | 4995 ft | 251 kts | 6° |
| 2026-04-18 15:24 | 48.72455 | -78.17714 | 4985 ft | 251 kts | 9° |
| 2026-04-18 15:24 | 48.74176 | -78.17275 | 4997 ft | 250 kts | 10° |
| 2026-04-18 15:25 | 48.75890 | -78.16805 | 5009 ft | 250 kts | 11° |
| 2026-04-18 15:25 | 48.77604 | -78.16277 | 4994 ft | 251 kts | 14° |
| 2026-04-18 15:25 | 48.79279 | -78.15535 | 4996 ft | 251 kts | 17° |
| 2026-04-18 15:25 | 48.80962 | -78.14853 | 5005 ft | 250 kts | 15° |
| 2026-04-18 15:26 | 48.82644 | -78.14167 | 5012 ft | 251 kts | 16° |
| 2026-04-18 15:26 | 48.84325 | -78.13462 | 4997 ft | 251 kts | 15° |
| 2026-04-18 15:26 | 48.86009 | -78.12772 | 4999 ft | 250 kts | 15° |
| 2026-04-18 15:26 | 48.87687 | -78.12071 | 5017 ft | 251 kts | 15° |
| 2026-04-18 15:27 | 48.89375 | -78.11380 | 5032 ft | 251 kts | 15° |
| 2026-04-18 15:27 | 48.91061 | -78.10672 | 5023 ft | 251 kts | 15° |
| 2026-04-18 15:27 | 48.92728 | -78.09991 | 5038 ft | 252 kts | 15° |
| 2026-04-18 15:27 | 48.94424 | -78.09286 | 5014 ft | 252 kts | 15° |
| 2026-04-18 15:28 | 48.96116 | -78.08578 | 5034 ft | 252 kts | 15° |
| 2026-04-18 15:28 | 48.97814 | -78.07872 | 5024 ft | 253 kts | 15° |
| 2026-04-18 15:28 | 48.99512 | -78.07169 | 5001 ft | 252 kts | 15° |
| 2026-04-18 15:28 | 49.01201 | -78.06463 | 5013 ft | 252 kts | 15° |
| 2026-04-18 15:29 | 49.02892 | -78.05761 | 5002 ft | 252 kts | 15° |
| 2026-04-18 15:29 | 49.04585 | -78.05048 | 4992 ft | 251 kts | 15° |
| 2026-04-18 15:29 | 49.06274 | -78.04345 | 5011 ft | 251 kts | 15° |
| 2026-04-18 15:29 | 49.07965 | -78.03650 | 5017 ft | 252 kts | 15° |
| 2026-04-18 15:30 | 49.09633 | -78.02940 | 4984 ft | 252 kts | 15° |
| 2026-04-18 15:30 | 49.11316 | -78.02235 | 4991 ft | 251 kts | 15° |
| 2026-04-18 15:30 | 49.12999 | -78.01535 | 5006 ft | 250 kts | 15° |
| 2026-04-18 15:30 | 49.14675 | -78.00808 | 5005 ft | 251 kts | 18° |
| 2026-04-18 15:31 | 49.16331 | -77.99938 | 4990 ft | 252 kts | 19° |
| 2026-04-18 15:31 | 49.17964 | -77.99019 | 4883 ft | 248 kts | 20° |
| 2026-04-18 15:31 | 49.19527 | -77.97935 | 4758 ft | 245 kts | 27° |
| 2026-04-18 15:31 | 49.21045 | -77.96761 | 4646 ft | 244 kts | 25° |
| 2026-04-18 15:32 | 49.22582 | -77.95679 | 4516 ft | 242 kts | 25° |
| 2026-04-18 15:32 | 49.24093 | -77.94547 | 4397 ft | 242 kts | 26° |
| 2026-04-18 15:32 | 49.25606 | -77.93433 | 4290 ft | 241 kts | 25° |
| 2026-04-18 15:32 | 49.27125 | -77.92339 | 4198 ft | 241 kts | 25° |
| 2026-04-18 15:33 | 49.28625 | -77.91210 | 4092 ft | 240 kts | 25° |
| 2026-04-18 15:33 | 49.30102 | -77.90133 | 4054 ft | 235 kts | 25° |
| 2026-04-18 15:33 | 49.31537 | -77.89079 | 4022 ft | 224 kts | 25° |
| 2026-04-18 15:33 | 49.32919 | -77.88056 | 4042 ft | 218 kts | 25° |
| 2026-04-18 15:34 | 49.34275 | -77.87073 | 4022 ft | 213 kts | 23° |
| 2026-04-18 15:34 | 49.35599 | -77.86074 | 4035 ft | 211 kts | 26° |
| 2026-04-18 15:34 | 49.36917 | -77.85091 | 4045 ft | 210 kts | 24° |
| 2026-04-18 15:34 | 49.38238 | -77.84138 | 4021 ft | 209 kts | 25° |
| 2026-04-18 15:35 | 49.39545 | -77.83162 | 4010 ft | 208 kts | 25° |
| 2026-04-18 15:35 | 49.40851 | -77.82190 | 4025 ft | 210 kts | 25° |
| 2026-04-18 15:35 | 49.42230 | -77.81178 | 4033 ft | 228 kts | 25° |
| 2026-04-18 15:35 | 49.43693 | -77.80083 | 4014 ft | 238 kts | 26° |
| 2026-04-18 15:36 | 49.45197 | -77.78958 | 4034 ft | 243 kts | 25° |
| 2026-04-18 15:36 | 49.46741 | -77.77822 | 4023 ft | 247 kts | 25° |
| 2026-04-18 15:36 | 49.48294 | -77.76664 | 3990 ft | 248 kts | 26° |
| 2026-04-18 15:36 | 49.49855 | -77.75525 | 4001 ft | 249 kts | 25° |
| 2026-04-18 15:37 | 49.51387 | -77.74361 | 4016 ft | 250 kts | 26° |
| 2026-04-18 15:37 | 49.52973 | -77.73193 | 4006 ft | 246 kts | 25° |
| 2026-04-18 15:37 | 49.54467 | -77.72091 | 3988 ft | 238 kts | 25° |
| 2026-04-18 15:37 | 49.55945 | -77.70975 | 3887 ft | 234 kts | 26° |
| 2026-04-18 15:38 | 49.57347 | -77.69732 | 3760 ft | 231 kts | 32° |
| 2026-04-18 15:38 | 49.58680 | -77.68347 | 3664 ft | 230 kts | 35° |
| 2026-04-18 15:38 | 49.59884 | -77.66724 | 3552 ft | 231 kts | 45° |
| 2026-04-18 15:38 | 49.61010 | -77.64947 | 3425 ft | 231 kts | 44° |
| 2026-04-18 15:39 | 49.62135 | -77.63224 | 3307 ft | 231 kts | 42° |
| 2026-04-18 15:39 | 49.63564 | -77.62149 | 3177 ft | 229 kts | 4° |
| 2026-04-18 15:39 | 49.65038 | -77.62765 | 3096 ft | 221 kts | 327° |
| 2026-04-18 15:39 | 49.66179 | -77.64065 | 3004 ft | 189 kts | 315° |
| 2026-04-18 15:40 | 49.67010 | -77.65438 | 2889 ft | 163 kts | 310° |
| 2026-04-18 15:40 | 49.67723 | -77.66663 | 2793 ft | 144 kts | 312° |
| 2026-04-18 15:40 | 49.68391 | -77.67709 | 2648 ft | 131 kts | 313° |
| 2026-04-18 15:40 | 49.69018 | -77.68693 | 2505 ft | 126 kts | 313° |
| 2026-04-18 15:41 | 49.69619 | -77.69667 | 2351 ft | 124 kts | 312° |
| 2026-04-18 15:41 | 49.70213 | -77.70631 | 2208 ft | 124 kts | 312° |
| 2026-04-18 15:41 | 49.70809 | -77.71589 | 2056 ft | 123 kts | 312° |
| 2026-04-18 15:41 | 49.71403 | -77.72548 | 1914 ft | 123 kts | 312° |
| 2026-04-18 15:42 | 49.72003 | -77.73510 | 1722 ft | 125 kts | 314° |
| 2026-04-18 15:42 | 49.72605 | -77.74488 | 1531 ft | 126 kts | 314° |
| 2026-04-18 15:42 | 49.73200 | -77.75460 | 1356 ft | 126 kts | 314° |
| 2026-04-18 15:42 | 49.73813 | -77.76441 | 1247 ft | 123 kts | 314° |
| 2026-04-18 15:43 | 49.74392 | -77.77376 | 1114 ft | 120 kts | 314° |
| 2026-04-18 15:43 | 49.74958 | -77.78297 | 1016 ft | 117 kts | 314° |
| 2026-04-18 15:43 | 49.75514 | -77.79199 | 940 ft | 113 kts | 314° |
| 2026-04-18 15:43 | 49.76021 | -77.80013 | 921 ft | 80 kts | 313° |
| 2026-04-18 15:44 | 49.76228 | -77.80351 | 920 ft | 30 kts | 314° |
| 2026-04-18 15:44 | 49.76399 | -77.80625 | 916 ft | 32 kts | 313° |
| 2026-04-18 15:44 | 49.76529 | -77.80835 | 915 ft | 26 kts | 314° |
| 2026-04-18 15:44 | 49.76633 | -77.80900 | 914 ft | 16 kts | 45° |
| 2026-04-18 15:45 | 49.76717 | -77.80714 | 914 ft | 15 kts | 48° |
| 2026-04-18 15:45 | 49.76748 | -77.80718 | 914 ft | 0 kts | 314° |